Time;durP1;ratioP1;P1;durP2;ratioP2;P2;SDS_P1;SDS_P2;PMS_P1;PMS_P2;Temp;Humidity;BMP_temperature;BMP_pressure;BME280_temperature;BME280_humidity;BME280_pressure;Samples;Min_cycle;Max_cycle;Signal;HPM_P1;HPM_P2
2023/03/29 00:02:02;;;;;;;4.95;2.22;;;;;;;;;;5010218;28;20140;-73
2023/03/29 00:04:29;;;;;;;2.50;2.20;;;;;;;;;;5009485;28;20053;-72
2023/03/29 00:06:56;;;;;;;3.13;2.20;;;;;;;;;;5009747;28;20121;-72
2023/03/29 00:09:25;;;;;;;2.58;2.15;;;;;;;;;;5010148;28;20487;-72
2023/03/29 00:11:52;;;;;;;3.80;2.55;;;;;;;;;;5009574;28;20487;-74
2023/03/29 00:14:18;;;;;;;5.50;2.47;;;;;;;;;;5010819;28;20068;-74
2023/03/29 00:16:45;;;;;;;3.58;2.50;;;;;;;;;;5010573;28;20129;-74
2023/03/29 00:19:12;;;;;;;4.30;2.30;;;;;;;;;;5010390;28;20111;-74
2023/03/29 00:21:38;;;;;;;4.03;3.08;;;;;;;;;;5010598;28;20049;-74
2023/03/29 00:24:05;;;;;;;3.33;2.30;;;;;;;;;;5010036;28;20049;-74
2023/03/29 00:26:33;;;;;;;5.80;2.35;;;;;;;;;;5010259;28;20072;-73
2023/03/29 00:29:00;;;;;;;5.25;2.70;;;;;;;;;;5009876;28;20046;-73
2023/03/29 00:31:27;;;;;;;4.32;2.60;;;;;;;;;;5010423;28;20046;-74
2023/03/29 00:33:54;;;;;;;3.97;2.47;;;;;;;;;;5009774;28;20046;-73
2023/03/29 00:36:22;;;;;;;3.90;2.30;;;;;;;;;;5010295;28;20099;-74
2023/03/29 00:38:49;;;;;;;4.55;2.50;;;;;;;;;;5009742;28;20479;-73
2023/03/29 00:41:15;;;;;;;3.58;2.65;;;;;;;;;;5009918;28;20184;-73
2023/03/29 00:43:55;;;;;;;2.70;2.20;;;;;;;;;;5009464;28;20050;-73
2023/03/29 00:46:22;;;;;;;2.83;2.20;;;;;;;;;;5010273;28;20050;-73
2023/03/29 00:48:52;;;;;;;4.57;2.67;;;;;;;;;;5009873;28;20493;-73
2023/03/29 00:51:20;;;;;;;3.35;2.42;;;;;;;;;;5010187;28;20505;-74
2023/03/29 00:53:50;;;;;;;4.32;2.50;;;;;;;;;;5009681;28;20084;-74
2023/03/29 00:56:23;;;;;;;6.72;2.83;;;;;;;;;;5010291;28;20091;-74
2023/03/29 00:58:54;;;;;;;4.57;2.60;;;;;;;;;;5010101;28;20072;-74
2023/03/29 01:01:27;;;;;;;3.10;2.40;;;;;;;;;;5010202;28;20451;-74
2023/03/29 01:03:58;;;;;;;5.67;2.60;;;;;;;;;;5009523;28;20049;-74
2023/03/29 01:06:28;;;;;;;3.55;2.10;;;;;;;;;;5010108;28;20756;-73
2023/03/29 01:08:58;;;;;;;3.38;2.58;;;;;;;;;;5009313;28;20122;-74
2023/03/29 01:11:27;;;;;;;6.13;3.40;;;;;;;;;;5009789;28;20050;-73
2023/03/29 01:13:59;;;;;;;5.18;2.78;;;;;;;;;;5009605;28;20042;-73
2023/03/29 01:16:29;;;;;;;5.30;2.70;;;;;;;;;;5009279;28;20046;-74
2023/03/29 01:18:57;;;;;;;3.78;2.80;;;;;;;;;;5009411;28;20057;-73
2023/03/29 01:21:29;;;;;;;4.32;2.70;;;;;;;;;;5009207;28;20053;-74
2023/03/29 01:24:24;;;;;;;5.97;2.72;;;;;;;;;;5009734;28;20438;-73
2023/03/29 01:26:57;;;;;;;4.00;2.70;;;;;;;;;;5009074;28;20046;-73
2023/03/29 01:29:31;;;;;;;3.15;2.50;;;;;;;;;;5009673;28;20302;-73
2023/03/29 01:32:01;;;;;;;3.60;2.50;;;;;;;;;;5009181;28;20384;-73
2023/03/29 01:34:35;;;;;;;3.42;2.55;;;;;;;;;;5009542;28;20488;-74
2023/03/29 01:37:07;;;;;;;3.67;2.40;;;;;;;;;;5008972;28;20050;-74
2023/03/29 01:39:34;;;;;;;4.05;2.20;;;;;;;;;;5009228;28;20048;-74
2023/03/29 01:42:21;;;;;;;2.67;2.13;;;;;;;;;;5008960;28;20054;-74
2023/03/29 01:44:55;;;;;;;5.38;2.72;;;;;;;;;;5009372;28;20498;-73
2023/03/29 01:47:29;;;;;;;4.57;2.42;;;;;;;;;;5008748;28;20141;-74
2023/03/29 01:50:05;;;;;;;5.10;3.05;;;;;;;;;;5005131;28;20056;-74
2023/03/29 01:52:36;;;;;;;3.17;2.30;;;;;;;;;;4989304;28;20404;-74
2023/03/29 01:55:08;;;;;;;3.85;2.38;;;;;;;;;;4989879;28;20088;-74
2023/03/29 01:57:36;;;;;;;3.35;2.47;;;;;;;;;;4989130;28;20053;-74
2023/03/29 02:00:09;;;;;;;2.88;2.35;;;;;;;;;;4989579;28;20053;-74
2023/03/29 02:02:38;;;;;;;3.58;2.45;;;;;;;;;;4989707;28;20046;-74
2023/03/29 02:05:08;;;;;;;3.50;2.55;;;;;;;;;;4989352;28;20388;-74
2023/03/29 02:07:37;;;;;;;2.97;2.38;;;;;;;;;;4988613;28;20050;-73
2023/03/29 02:10:05;;;;;;;3.22;2.30;;;;;;;;;;4989517;28;20401;-73
2023/03/29 02:12:32;;;;;;;4.32;2.38;;;;;;;;;;4989056;28;20050;-73
2023/03/29 02:14:59;;;;;;;3.42;2.40;;;;;;;;;;4989285;28;20061;-74
2023/03/29 02:17:28;;;;;;;2.63;2.38;;;;;;;;;;4989116;28;20119;-74
2023/03/29 02:19:59;;;;;;;3.70;2.38;;;;;;;;;;4989207;28;20050;-74
2023/03/29 02:22:29;;;;;;;2.90;2.38;;;;;;;;;;4989290;28;20133;-73
2023/03/29 02:24:59;;;;;;;3.83;2.20;;;;;;;;;;4989247;28;20398;-73
2023/03/29 02:27:26;;;;;;;4.35;2.75;;;;;;;;;;4988910;28;20133;-74
2023/03/29 02:29:53;;;;;;;4.80;2.47;;;;;;;;;;4988781;28;20078;-74
2023/03/29 02:32:23;;;;;;;3.63;2.50;;;;;;;;;;4988970;28;20066;-73
2023/03/29 02:34:57;;;;;;;3.00;2.35;;;;;;;;;;4988762;28;20457;-73
2023/03/29 02:37:30;;;;;;;3.65;2.45;;;;;;;;;;4988894;28;20410;-74
2023/03/29 02:39:58;;;;;;;4.35;2.38;;;;;;;;;;4988433;28;20088;-73
2023/03/29 02:42:26;;;;;;;3.80;2.20;;;;;;;;;;4988296;28;20483;-74
2023/03/29 02:44:55;;;;;;;6.43;2.50;;;;;;;;;;4988575;28;20060;-74
2023/03/29 02:47:26;;;;;;;3.20;2.30;;;;;;;;;;4988702;28;20043;-74
2023/03/29 02:49:54;;;;;;;3.47;2.70;;;;;;;;;;4988370;28;20060;-74
2023/03/29 02:52:24;;;;;;;3.72;2.50;;;;;;;;;;4988717;28;20133;-74
2023/03/29 02:54:53;;;;;;;4.55;2.33;;;;;;;;;;4988487;28;20458;-74
2023/03/29 02:57:25;;;;;;;3.78;2.50;;;;;;;;;;4988369;28;20133;-74
2023/03/29 02:59:51;;;;;;;2.63;2.40;;;;;;;;;;4987242;28;20054;-74
2023/03/29 03:02:18;;;;;;;2.95;2.25;;;;;;;;;;4989935;28;20496;-74
2023/03/29 03:04:45;;;;;;;3.78;2.28;;;;;;;;;;4988408;28;20048;-74
2023/03/29 03:07:13;;;;;;;3.47;2.70;;;;;;;;;;4988679;28;20052;-74
2023/03/29 03:09:40;;;;;;;3.42;2.50;;;;;;;;;;5003153;28;20050;-74
2023/03/29 03:12:07;;;;;;;3.55;2.42;;;;;;;;;;5007790;28;20050;-74
2023/03/29 03:14:33;;;;;;;6.07;2.70;;;;;;;;;;5008125;28;20045;-74
2023/03/29 03:17:00;;;;;;;3.60;2.38;;;;;;;;;;5007394;28;20052;-74
2023/03/29 03:19:27;;;;;;;4.20;2.75;;;;;;;;;;5007985;28;20473;-74
2023/03/29 03:21:53;;;;;;;7.22;4.50;;;;;;;;;;5007606;28;20061;-74
2023/03/29 03:24:21;;;;;;;11.57;2.72;;;;;;;;;;5007871;28;20050;-74
2023/03/29 03:26:48;;;;;;;3.97;2.72;;;;;;;;;;5007371;28;20076;-74
2023/03/29 03:29:15;;;;;;;3.85;2.78;;;;;;;;;;5007914;28;20505;-74
2023/03/29 03:31:43;;;;;;;4.05;2.78;;;;;;;;;;5007330;28;20081;-74
2023/03/29 03:34:10;;;;;;;4.32;2.50;;;;;;;;;;5007879;28;20104;-73
2023/03/29 03:36:37;;;;;;;5.75;2.67;;;;;;;;;;5006922;28;20111;-74
2023/03/29 03:39:06;;;;;;;4.28;2.90;;;;;;;;;;5007625;28;20054;-74
2023/03/29 03:41:34;;;;;;;3.78;2.60;;;;;;;;;;5007562;28;20514;-74
2023/03/29 03:44:01;;;;;;;3.67;2.80;;;;;;;;;;5007285;28;20061;-74
2023/03/29 03:46:27;;;;;;;5.50;3.20;;;;;;;;;;5007587;28;20430;-74
2023/03/29 03:48:54;;;;;;;3.80;2.65;;;;;;;;;;5007254;28;20052;-74
2023/03/29 03:51:21;;;;;;;4.07;2.78;;;;;;;;;;5007536;28;20050;-74
2023/03/29 03:53:47;;;;;;;4.20;2.95;;;;;;;;;;5007097;28;20152;-74
2023/03/29 03:56:15;;;;;;;5.43;2.90;;;;;;;;;;5007363;28;20140;-74
2023/03/29 03:58:43;;;;;;;4.15;2.92;;;;;;;;;;5007171;28;20046;-74
2023/03/29 04:01:10;;;;;;;4.72;3.00;;;;;;;;;;5007437;28;20054;-74
2023/03/29 04:03:37;;;;;;;4.15;3.10;;;;;;;;;;5007272;28;20046;-73
2023/03/29 04:06:05;;;;;;;3.50;2.88;;;;;;;;;;5007122;28;20483;-74
2023/03/29 04:08:32;;;;;;;3.65;3.03;;;;;;;;;;5007052;28;20475;-74
2023/03/29 04:10:59;;;;;;;4.93;3.28;;;;;;;;;;5007916;28;20085;-73
2023/03/29 04:13:27;;;;;;;4.90;3.05;;;;;;;;;;5010109;28;20050;-74
2023/03/29 04:15:55;;;;;;;4.78;2.80;;;;;;;;;;5011182;28;20144;-74
2023/03/29 04:18:22;;;;;;;4.45;3.17;;;;;;;;;;5010673;28;20053;-73
2023/03/29 04:20:50;;;;;;;4.68;3.05;;;;;;;;;;5010497;28;20056;-74
2023/03/29 04:23:16;;;;;;;3.70;2.70;;;;;;;;;;5010670;28;20570;-74
2023/03/29 04:25:43;;;;;;;4.28;3.13;;;;;;;;;;5010388;28;20123;-73
2023/03/29 04:28:11;;;;;;;4.72;3.20;;;;;;;;;;5007001;23;20120;-68
2023/03/29 04:30:38;;;;;;;5.32;2.95;;;;;;;;;;4990666;28;20046;-69
2023/03/29 04:33:06;;;;;;;4.65;3.33;;;;;;;;;;4990736;28;20053;-67
2023/03/29 04:35:32;;;;;;;3.92;2.85;;;;;;;;;;4989658;28;20422;-67
2023/03/29 04:37:59;;;;;;;3.70;3.00;;;;;;;;;;4990632;28;20050;-68
2023/03/29 04:40:26;;;;;;;3.97;2.97;;;;;;;;;;4990234;28;20636;-68
2023/03/29 04:42:53;;;;;;;5.45;3.45;;;;;;;;;;4990678;28;20523;-69
2023/03/29 04:45:20;;;;;;;3.88;3.30;;;;;;;;;;4990488;28;20399;-68
2023/03/29 04:47:46;;;;;;;4.45;3.00;;;;;;;;;;4990429;28;20078;-69
2023/03/29 04:50:14;;;;;;;6.03;3.08;;;;;;;;;;4990207;28;20049;-68
2023/03/29 04:52:41;;;;;;;4.75;2.83;;;;;;;;;;4990294;28;20137;-68
2023/03/29 04:55:08;;;;;;;4.70;3.05;;;;;;;;;;4990070;28;20107;-69
2023/03/29 04:57:35;;;;;;;6.40;3.00;;;;;;;;;;4990264;28;20046;-67
2023/03/29 05:00:07;;;;;;;4.55;3.10;;;;;;;;;;4990236;28;20137;-68
2023/03/29 05:02:33;;;;;;;6.30;2.97;;;;;;;;;;4990500;28;20057;-69
2023/03/29 05:05:00;;;;;;;8.25;3.30;;;;;;;;;;4990074;28;20042;-69
2023/03/29 05:07:28;;;;;;;6.28;3.30;;;;;;;;;;4989309;28;20050;-69
2023/03/29 05:09:55;;;;;;;4.68;3.45;;;;;;;;;;4990320;28;20046;-69
2023/03/29 05:12:22;;;;;;;6.53;3.38;;;;;;;;;;4989540;28;20042;-68
2023/03/29 05:14:48;;;;;;;4.97;3.05;;;;;;;;;;4990407;28;20466;-69
2023/03/29 05:17:15;;;;;;;4.90;3.65;;;;;;;;;;4989581;28;20050;-69
2023/03/29 05:19:42;;;;;;;6.30;3.40;;;;;;;;;;4990449;28;20043;-68
2023/03/29 05:22:08;;;;;;;8.00;4.07;;;;;;;;;;4989808;28;20412;-69
2023/03/29 05:24:36;;;;;;;5.22;3.30;;;;;;;;;;4989359;28;20065;-69
2023/03/29 05:27:03;;;;;;;5.22;3.53;;;;;;;;;;4989297;28;20061;-69
2023/03/29 05:29:31;;;;;;;4.60;3.38;;;;;;;;;;4990040;28;20076;-69
2023/03/29 05:31:58;;;;;;;4.95;3.70;;;;;;;;;;4989570;28;20059;-69
2023/03/29 05:34:25;;;;;;;4.50;3.53;;;;;;;;;;4989957;28;20137;-68
2023/03/29 05:36:52;;;;;;;5.70;3.38;;;;;;;;;;4989397;28;20050;-67
2023/03/29 05:39:18;;;;;;;5.43;3.22;;;;;;;;;;4989567;28;20050;-68
2023/03/29 05:41:46;;;;;;;5.88;3.63;;;;;;;;;;4989533;28;20057;-69
2023/03/29 05:44:13;;;;;;;6.30;3.83;;;;;;;;;;4989317;28;20042;-70
2023/03/29 05:46:39;;;;;;;4.50;3.60;;;;;;;;;;4989632;28;20053;-69
2023/03/29 05:49:06;;;;;;;7.40;3.40;;;;;;;;;;4988884;28;20046;-69
2023/03/29 05:51:34;;;;;;;4.57;3.50;;;;;;;;;;4989643;28;20412;-69
2023/03/29 05:54:01;;;;;;;6.45;3.70;;;;;;;;;;4988952;28;20065;-68
2023/03/29 05:56:27;;;;;;;5.38;3.95;;;;;;;;;;4989152;28;20046;-69
2023/03/29 05:58:56;;;;;;;5.80;3.85;;;;;;;;;;4988116;28;20133;-70
2023/03/29 06:01:23;;;;;;;5.90;3.65;;;;;;;;;;4986250;28;20058;-67
2023/03/29 06:03:50;;;;;;;6.28;3.70;;;;;;;;;;4987372;28;20120;-69
2023/03/29 06:06:17;;;;;;;5.90;3.53;;;;;;;;;;4987556;28;20042;-69
2023/03/29 06:08:45;;;;;;;5.82;3.78;;;;;;;;;;4987004;28;20333;-69
2023/03/29 06:11:13;;;;;;;4.90;3.80;;;;;;;;;;4988535;28;20575;-68
2023/03/29 06:13:40;;;;;;;5.28;3.63;;;;;;;;;;4988544;28;20315;-69
2023/03/29 06:16:09;;;;;;;6.47;3.92;;;;;;;;;;4987703;28;20046;-70
2023/03/29 06:18:38;;;;;;;5.05;3.80;;;;;;;;;;4987939;28;20050;-69
2023/03/29 06:21:06;;;;;;;7.25;4.13;;;;;;;;;;4987976;28;20073;-70
2023/03/29 06:23:33;;;;;;;5.93;3.85;;;;;;;;;;4988681;28;20108;-69
2023/03/29 06:26:00;;;;;;;6.45;3.80;;;;;;;;;;4988449;28;20540;-69
2023/03/29 06:28:27;;;;;;;5.15;3.80;;;;;;;;;;4988132;28;20052;-69
2023/03/29 06:30:56;;;;;;;7.43;4.63;;;;;;;;;;4987468;28;20046;-68
2023/03/29 06:33:24;;;;;;;6.65;4.47;;;;;;;;;;4987477;28;20054;-70
2023/03/29 06:35:51;;;;;;;5.35;3.90;;;;;;;;;;4987392;28;20069;-69
2023/03/29 06:38:18;;;;;;;9.32;5.60;;;;;;;;;;4978435;28;20430;-68
2023/03/29 06:40:46;;;;;;;5.82;4.07;;;;;;;;;;4977512;28;20505;-70
2023/03/29 06:43:13;;;;;;;5.60;4.10;;;;;;;;;;4993632;28;20050;-69
2023/03/29 06:45:40;;;;;;;7.28;3.15;;;;;;;;;;4987746;28;20396;-69
2023/03/29 06:48:07;;;;;;;6.65;3.55;;;;;;;;;;4984694;28;20050;-67
2023/03/29 06:50:36;;;;;;;5.85;3.65;;;;;;;;;;4986619;28;20046;-69
2023/03/29 06:53:02;;;;;;;5.85;3.15;;;;;;;;;;4986624;28;20053;-67
2023/03/29 06:55:30;;;;;;;5.20;3.70;;;;;;;;;;4985151;28;20046;-69
2023/03/29 06:57:57;;;;;;;5.95;3.30;;;;;;;;;;4986664;28;20148;-69
2023/03/29 07:00:27;;;;;;;3.35;2.63;;;;;;;;;;4985723;28;20053;-69
2023/03/29 07:02:54;;;;;;;6.10;3.20;;;;;;;;;;4969537;28;20058;-69
2023/03/29 07:05:22;;;;;;;4.45;3.60;;;;;;;;;;4985599;28;20081;-68
2023/03/29 07:07:55;;;;;;;5.75;4.18;;;;;;;;;;4985501;28;20050;-66
2023/03/29 07:10:24;;;;;;;4.75;3.75;;;;;;;;;;4985804;28;20050;-66
2023/03/29 07:12:51;;;;;;;5.57;3.78;;;;;;;;;;4983600;28;20042;-68
2023/03/29 07:15:19;;;;;;;4.15;2.92;;;;;;;;;;4984530;28;20126;-67
2023/03/29 07:17:45;;;;;;;5.10;2.85;;;;;;;;;;4982583;28;20581;-66
2023/03/29 07:20:13;;;;;;;5.07;3.03;;;;;;;;;;4979839;28;20135;-67
2023/03/29 07:22:40;;;;;;;5.45;3.50;;;;;;;;;;4983754;28;20051;-67
2023/03/29 07:25:09;;;;;;;5.60;3.55;;;;;;;;;;4985653;28;20053;-67
2023/03/29 07:27:36;;;;;;;9.13;4.20;;;;;;;;;;4985761;28;20100;-66
2023/03/29 07:30:08;;;;;;;5.47;3.15;;;;;;;;;;4986810;28;20054;-67
2023/03/29 07:32:35;;;;;;;5.18;3.50;;;;;;;;;;4984965;28;20054;-68
2023/03/29 07:35:03;;;;;;;5.55;3.38;;;;;;;;;;4982083;28;20485;-66
2023/03/29 07:37:29;;;;;;;6.13;3.92;;;;;;;;;;4985485;28;20074;-69
2023/03/29 07:39:56;;;;;;;6.50;3.38;;;;;;;;;;4984877;28;20108;-69
2023/03/29 07:42:24;;;;;;;7.40;3.90;;;;;;;;;;4982245;28;20072;-69
2023/03/29 07:44:51;;;;;;;5.35;3.78;;;;;;;;;;4975445;28;20564;-69
2023/03/29 07:47:18;;;;;;;8.00;3.28;;;;;;;;;;4980823;28;20125;-69
2023/03/29 07:49:45;;;;;;;8.40;3.40;;;;;;;;;;4975002;28;20069;-69
2023/03/29 07:52:12;;;;;;;5.88;3.92;;;;;;;;;;4984921;28;20078;-69
2023/03/29 07:54:39;;;;;;;6.13;3.67;;;;;;;;;;4987753;28;20082;-69
2023/03/29 07:57:06;;;;;;;4.55;3.40;;;;;;;;;;4988415;28;20506;-69
2023/03/29 07:59:34;;;;;;;6.32;3.95;;;;;;;;;;4987896;28;20085;-69
2023/03/29 08:02:01;;;;;;;5.75;3.08;;;;;;;;;;4989055;28;20043;-69
2023/03/29 08:04:28;;;;;;;7.55;3.22;;;;;;;;;;4984606;28;20411;-69
2023/03/29 08:06:55;;;;;;;8.35;3.53;;;;;;;;;;4981010;28;20050;-69
2023/03/29 08:09:21;;;;;;;6.18;3.40;;;;;;;;;;4983230;28;20229;-69
2023/03/29 08:11:49;;;;;;;8.35;4.13;;;;;;;;;;4984582;28;20039;-69
2023/03/29 08:14:15;;;;;;;5.00;3.33;;;;;;;;;;4984777;28;20578;-68
2023/03/29 08:16:44;;;;;;;5.38;3.58;;;;;;;;;;4986854;28;20054;-68
2023/03/29 08:19:11;;;;;;;3.97;3.35;;;;;;;;;;4981446;28;20100;-69
2023/03/29 08:21:38;;;;;;;5.80;3.42;;;;;;;;;;4986534;28;20095;-69
2023/03/29 08:24:05;;;;;;;6.22;3.40;;;;;;;;;;4987779;28;20081;-68
2023/03/29 08:26:32;;;;;;;5.32;3.08;;;;;;;;;;4989235;28;20550;-68
2023/03/29 08:28:59;;;;;;;7.47;3.35;;;;;;;;;;4985594;28;20458;-69
2023/03/29 08:31:26;;;;;;;10.20;3.33;;;;;;;;;;4986247;28;20134;-69
2023/03/29 08:33:55;;;;;;;6.18;3.60;;;;;;;;;;4987235;28;20047;-69
2023/03/29 08:36:21;;;;;;;5.82;3.35;;;;;;;;;;4981778;28;20134;-69
2023/03/29 08:38:49;;;;;;;6.82;3.67;;;;;;;;;;4985735;28;20103;-69
2023/03/29 08:41:32;;;;;;;8.85;3.63;;;;;;;;;;4983223;28;20050;-69
2023/03/29 08:44:11;;;;;;;4.82;3.35;;;;;;;;;;4987205;28;20046;-69
2023/03/29 08:46:44;;;;;;;6.78;3.58;;;;;;;;;;4988337;28;20679;-69
2023/03/29 08:49:13;;;;;;;8.82;3.20;;;;;;;;;;4982778;28;20129;-69
2023/03/29 08:51:43;;;;;;;4.00;3.15;;;;;;;;;;4982941;28;20049;-70
2023/03/29 08:54:15;;;;;;;8.05;3.35;;;;;;;;;;4977993;28;20043;-69
2023/03/29 08:56:44;;;;;;;6.03;3.30;;;;;;;;;;4983987;28;20415;-69
2023/03/29 08:59:19;;;;;;;5.95;3.72;;;;;;;;;;4983607;28;20046;-69
2023/03/29 09:01:49;;;;;;;5.00;3.45;;;;;;;;;;4986839;28;20484;-69
2023/03/29 09:04:21;;;;;;;8.90;3.67;;;;;;;;;;4982339;28;22082;-70
2023/03/29 09:06:48;;;;;;;7.90;3.53;;;;;;;;;;4986429;28;20384;-70
2023/03/29 09:09:19;;;;;;;6.43;3.30;;;;;;;;;;4985227;28;20103;-69
2023/03/29 09:12:00;;;;;;;5.30;3.33;;;;;;;;;;4986005;28;20549;-69
2023/03/29 09:14:40;;;;;;;4.55;3.55;;;;;;;;;;4982366;28;20049;-68
2023/03/29 09:17:20;;;;;;;6.43;3.60;;;;;;;;;;4984825;28;20289;-69
2023/03/29 09:19:55;;;;;;;4.32;3.28;;;;;;;;;;4979908;28;20125;-69
2023/03/29 09:22:29;;;;;;;5.38;2.92;;;;;;;;;;4984345;28;20638;-69
2023/03/29 09:25:05;;;;;;;6.25;2.80;;;;;;;;;;4982335;28;20050;-69
2023/03/29 09:27:38;;;;;;;3.85;2.90;;;;;;;;;;4986617;28;20050;-69
2023/03/29 09:30:15;;;;;;;5.03;3.03;;;;;;;;;;4984832;28;20057;-69
2023/03/29 09:32:49;;;;;;;5.38;2.35;;;;;;;;;;4985363;28;20055;-68
2023/03/29 09:35:22;;;;;;;6.07;2.90;;;;;;;;;;4983780;28;20051;-69
2023/03/29 09:37:51;;;;;;;5.57;2.60;;;;;;;;;;4981113;28;20049;-69
2023/03/29 09:40:22;;;;;;;4.45;2.60;;;;;;;;;;4983098;28;20477;-69
2023/03/29 09:42:50;;;;;;;5.35;2.80;;;;;;;;;;4986613;28;20470;-69
2023/03/29 09:45:18;;;;;;;4.00;2.15;;;;;;;;;;4985211;28;20070;-69
2023/03/29 09:47:49;;;;;;;4.30;2.38;;;;;;;;;;4987049;28;20074;-69
2023/03/29 09:50:22;;;;;;;3.95;2.10;;;;;;;;;;4980877;28;20074;-69
2023/03/29 09:52:50;;;;;;;5.55;2.38;;;;;;;;;;4984894;28;20130;-69
2023/03/29 09:55:20;;;;;;;6.20;2.47;;;;;;;;;;4985181;28;20079;-68
2023/03/29 09:57:48;;;;;;;3.60;1.67;;;;;;;;;;4978859;28;20042;-69
2023/03/29 10:00:16;;;;;;;5.00;2.38;;;;;;;;;;4981905;28;20408;-69
2023/03/29 10:02:51;;;;;;;3.20;1.60;;;;;;;;;;4985284;28;20077;-69
2023/03/29 10:05:20;;;;;;;4.20;2.28;;;;;;;;;;4981904;28;21913;-69
2023/03/29 10:07:52;;;;;;;2.95;1.90;;;;;;;;;;4984294;28;20051;-69
2023/03/29 10:10:22;;;;;;;4.87;2.50;;;;;;;;;;4979976;28;20046;-69
2023/03/29 10:12:52;;;;;;;6.05;2.42;;;;;;;;;;4986232;28;20287;-69
2023/03/29 10:15:20;;;;;;;3.95;2.53;;;;;;;;;;4984097;28;20453;-69
2023/03/29 10:17:48;;;;;;;5.47;2.83;;;;;;;;;;4977064;28;20046;-69
2023/03/29 10:20:17;;;;;;;7.10;2.90;;;;;;;;;;4979018;28;20049;-69
2023/03/29 10:22:50;;;;;;;3.97;2.30;;;;;;;;;;4985375;28;20046;-68
2023/03/29 10:25:18;;;;;;;4.07;2.30;;;;;;;;;;4986487;28;20053;-68
2023/03/29 10:27:47;;;;;;;4.35;2.25;;;;;;;;;;5002348;23;20470;-73
2023/03/29 10:30:21;;;;;;;5.30;2.35;;;;;;;;;;4996666;28;20095;-73
2023/03/29 10:32:54;;;;;;;5.10;2.65;;;;;;;;;;5030774;28;20080;-73
2023/03/29 10:35:24;;;;;;;5.38;2.38;;;;;;;;;;4997807;28;20974;-73
2023/03/29 10:37:55;;;;;;;8.93;4.75;;;;;;;;;;4999278;28;20056;-74
2023/03/29 10:40:27;;;;;;;5.35;2.50;;;;;;;;;;4989035;28;20042;-74
2023/03/29 10:42:57;;;;;;;5.75;2.20;;;;;;;;;;4988214;28;20047;-73
2023/03/29 10:45:27;;;;;;;3.28;2.10;;;;;;;;;;5019581;28;20050;-74
2023/03/29 10:47:55;;;;;;;2.72;1.88;;;;;;;;;;5004084;28;20049;-74
2023/03/29 10:50:22;;;;;;;3.08;1.95;;;;;;;;;;4999234;28;20295;-74
2023/03/29 10:52:49;;;;;;;2.33;1.98;;;;;;;;;;5034439;28;20041;-74
2023/03/29 10:55:18;;;;;;;3.53;2.45;;;;;;;;;;5002544;28;20503;-73
2023/03/29 10:57:57;;;;;;;3.83;2.40;;;;;;;;;;5008976;28;20089;-73
2023/03/29 11:00:30;;;;;;;2.50;1.85;;;;;;;;;;5042254;28;20483;-73
2023/03/29 11:03:29;;;;;;;2.92;2.00;;;;;;;;;;5011919;28;20046;-73
2023/03/29 11:06:00;;;;;;;6.82;4.63;;;;;;;;;;5002711;28;20048;-73
2023/03/29 11:08:44;;;;;;;5.10;2.47;;;;;;;;;;5006772;28;20570;-73
2023/03/29 11:11:27;;;;;;;3.45;2.70;;;;;;;;;;5007192;28;20503;-73
2023/03/29 11:13:59;;;;;;;4.45;2.50;;;;;;;;;;5006702;28;20475;-73
2023/03/29 11:16:33;;;;;;;2.33;2.13;;;;;;;;;;5006494;28;20069;-73
2023/03/29 11:19:12;;;;;;;4.50;2.47;;;;;;;;;;5006792;28;20050;-74
2023/03/29 11:21:46;;;;;;;3.72;2.55;;;;;;;;;;5005468;28;20391;-73
2023/03/29 11:24:27;;;;;;;3.80;2.30;;;;;;;;;;5003079;28;20050;-73
2023/03/29 11:27:08;;;;;;;6.35;2.55;;;;;;;;;;4995235;28;20524;-73
2023/03/29 11:29:43;;;;;;;3.55;2.30;;;;;;;;;;4997731;28;20061;-73
2023/03/29 11:32:15;;;;;;;3.50;2.22;;;;;;;;;;4995378;28;20057;-74
2023/03/29 11:34:54;;;;;;;6.82;3.30;;;;;;;;;;5001458;28;20042;-73
2023/03/29 11:37:28;;;;;;;5.30;2.22;;;;;;;;;;5002141;28;20107;-73
2023/03/29 11:40:10;;;;;;;4.20;2.17;;;;;;;;;;5003158;28;20085;-74
2023/03/29 11:42:43;;;;;;;3.15;2.30;;;;;;;;;;5023356;28;20095;-73
2023/03/29 11:45:15;;;;;;;5.95;2.53;;;;;;;;;;5012724;28;20560;-73
2023/03/29 11:47:44;;;;;;;3.63;2.90;;;;;;;;;;5002602;28;20046;-73
2023/03/29 11:50:19;;;;;;;5.07;2.60;;;;;;;;;;5003908;28;20125;-73
2023/03/29 11:52:51;;;;;;;4.38;2.72;;;;;;;;;;5003058;28;20547;-74
2023/03/29 11:55:22;;;;;;;5.55;2.42;;;;;;;;;;4998869;28;20152;-74
2023/03/29 11:57:55;;;;;;;3.47;2.70;;;;;;;;;;4999257;28;20402;-73
2023/03/29 12:00:25;;;;;;;4.78;2.45;;;;;;;;;;4999976;28;20042;-74
2023/03/29 12:02:58;;;;;;;3.70;2.30;;;;;;;;;;5006260;28;20119;-74
2023/03/29 12:05:30;;;;;;;3.60;2.40;;;;;;;;;;4993063;28;20100;-73
2023/03/29 12:08:00;;;;;;;3.47;2.20;;;;;;;;;;5032120;28;20051;-74
2023/03/29 12:10:33;;;;;;;3.85;2.55;;;;;;;;;;5089768;28;20135;-74
2023/03/29 12:13:05;;;;;;;4.93;2.22;;;;;;;;;;5020754;28;20043;-74
2023/03/29 12:15:38;;;;;;;3.22;2.35;;;;;;;;;;5007014;28;20452;-73
2023/03/29 12:18:14;;;;;;;4.38;2.88;;;;;;;;;;5006755;28;20046;-74
2023/03/29 12:20:41;;;;;;;6.30;3.90;;;;;;;;;;5006341;28;20038;-74
2023/03/29 12:23:10;;;;;;;6.65;2.80;;;;;;;;;;5007272;28;20107;-73
2023/03/29 12:25:44;;;;;;;14.05;6.75;;;;;;;;;;5006516;28;20243;-74
2023/03/29 12:28:32;;;;;;;11.65;5.00;;;;;;;;;;5005264;28;20046;-73
2023/03/29 12:31:08;;;;;;;24.60;8.95;;;;;;;;;;4986402;28;20483;-74
2023/03/29 12:33:54;;;;;;;6.30;2.50;;;;;;;;;;4989890;28;20237;-73
2023/03/29 12:36:38;;;;;;;3.85;2.20;;;;;;;;;;4992381;28;20557;-73
2023/03/29 12:39:05;;;;;;;4.07;2.20;;;;;;;;;;5005719;28;20100;-74
2023/03/29 12:41:37;;;;;;;2.15;1.67;;;;;;;;;;5036655;28;20046;-72
2023/03/29 12:44:05;;;;;;;3.22;1.98;;;;;;;;;;5004545;28;20046;-72
2023/03/29 12:46:34;;;;;;;4.50;2.00;;;;;;;;;;5035907;28;20071;-71
2023/03/29 12:49:10;;;;;;;5.07;1.80;;;;;;;;;;5012742;28;20050;-72
2023/03/29 12:51:41;;;;;;;4.80;2.40;;;;;;;;;;4998706;28;20050;-71
2023/03/29 12:54:14;;;;;;;3.67;1.80;;;;;;;;;;5008668;28;20565;-71
2023/03/29 12:56:55;;;;;;;2.67;1.77;;;;;;;;;;5009552;28;20050;-72
2023/03/29 12:59:34;;;;;;;3.47;2.03;;;;;;;;;;5009157;28;20487;-72
2023/03/29 13:02:04;;;;;;;2.88;1.80;;;;;;;;;;5008707;28;20466;-72
2023/03/29 13:04:38;;;;;;;3.65;2.10;;;;;;;;;;4995086;28;20049;-71
2023/03/29 13:07:05;;;;;;;3.97;1.90;;;;;;;;;;4998624;28;20415;-72
2023/03/29 13:09:47;;;;;;;3.45;1.90;;;;;;;;;;5000258;28;20406;-71
2023/03/29 13:12:23;;;;;;;2.93;1.97;;;;;;;;;;4990220;28;20118;-72
2023/03/29 13:14:55;;;;;;;3.15;1.80;;;;;;;;;;4998261;28;20136;-72
2023/03/29 13:17:30;;;;;;;4.25;2.00;;;;;;;;;;4999413;28;20038;-74
2023/03/29 13:20:14;;;;;;;7.78;4.75;;;;;;;;;;5016076;28;20050;-73
2023/03/29 13:22:52;;;;;;;16.17;9.10;;;;;;;;;;4990766;28;20043;-72
2023/03/29 13:25:40;;;;;;;4.65;1.90;;;;;;;;;;4988023;28;20466;-72
2023/03/29 13:28:14;;;;;;;4.18;1.85;;;;;;;;;;4988562;28;20050;-71
2023/03/29 13:30:52;;;;;;;2.90;2.25;;;;;;;;;;4984590;28;20129;-71
2023/03/29 13:33:39;;;;;;;3.50;2.45;;;;;;;;;;5009104;28;20052;-72
2023/03/29 13:36:14;;;;;;;6.75;1.90;;;;;;;;;;4989618;28;20081;-70
2023/03/29 13:38:47;;;;;;;25.92;20.48;;;;;;;;;;4990360;28;20046;-72
2023/03/29 13:41:28;;;;;;;6.38;2.35;;;;;;;;;;5003652;28;20407;-73
2023/03/29 13:43:57;;;;;;;2.38;1.65;;;;;;;;;;5003494;28;20137;-72
2023/03/29 13:46:37;;;;;;;7.13;2.20;;;;;;;;;;4991589;28;20089;-72
2023/03/29 13:49:15;;;;;;;35.78;24.23;;;;;;;;;;5000822;28;20046;-71
2023/03/29 13:51:47;;;;;;;6.00;3.30;;;;;;;;;;4991285;28;20099;-73
2023/03/29 13:54:23;;;;;;;3.85;2.28;;;;;;;;;;5008418;28;20099;-73
2023/03/29 13:56:58;;;;;;;3.25;2.10;;;;;;;;;;4996283;28;20511;-69
2023/03/29 13:59:28;;;;;;;3.97;1.73;;;;;;;;;;5003719;28;20057;-72
2023/03/29 14:01:59;;;;;;;5.45;1.83;;;;;;;;;;5110599;28;20043;-72
2023/03/29 14:04:28;;;;;;;3.10;1.75;;;;;;;;;;5014333;28;20052;-73
2023/03/29 14:06:56;;;;;;;4.35;1.70;;;;;;;;;;4988315;28;20568;-72
2023/03/29 14:09:27;;;;;;;5.80;2.00;;;;;;;;;;5005387;28;20055;-72
2023/03/29 14:11:54;;;;;;;5.18;4.65;;;;;;;;;;4998398;28;20431;-72
2023/03/29 14:14:23;;;;;;;4.75;2.30;;;;;;;;;;5000588;28;20471;-72
2023/03/29 14:16:50;;;;;;;3.03;1.85;;;;;;;;;;5003815;28;20048;-70
2023/03/29 14:19:24;;;;;;;7.25;4.22;;;;;;;;;;5003597;28;20081;-72
2023/03/29 14:21:53;;;;;;;4.93;2.50;;;;;;;;;;4998478;28;20073;-71
2023/03/29 14:24:22;;;;;;;4.88;2.30;;;;;;;;;;5010083;28;20081;-69
2023/03/29 14:26:48;;;;;;;4.35;2.10;;;;;;;;;;4988806;28;20128;-72
2023/03/29 14:29:16;;;;;;;2.88;1.80;;;;;;;;;;4990522;28;20212;-72
2023/03/29 14:31:43;;;;;;;2.88;1.95;;;;;;;;;;5005239;28;20415;-72
2023/03/29 14:34:14;;;;;;;3.55;1.83;;;;;;;;;;5003377;28;20099;-72
2023/03/29 14:36:44;;;;;;;4.35;2.03;;;;;;;;;;5001320;28;20430;-71
2023/03/29 14:39:15;;;;;;;4.65;2.28;;;;;;;;;;4991619;28;20053;-72
2023/03/29 14:41:47;;;;;;;6.22;2.83;;;;;;;;;;4996234;28;20128;-72
2023/03/29 14:44:15;;;;;;;5.13;2.90;;;;;;;;;;4987091;28;20042;-72
2023/03/29 14:46:44;;;;;;;4.57;2.72;;;;;;;;;;4981654;28;20117;-72
2023/03/29 14:49:15;;;;;;;5.93;3.22;;;;;;;;;;4979509;28;20170;-71
2023/03/29 14:51:43;;;;;;;6.50;3.25;;;;;;;;;;4998855;28;20101;-70
2023/03/29 14:54:17;;;;;;;6.72;3.08;;;;;;;;;;4995429;28;20515;-72
2023/03/29 14:56:46;;;;;;;2.97;1.77;;;;;;;;;;4997331;28;20446;-74
2023/03/29 14:59:25;;;;;;;2.53;1.63;;;;;;;;;;4996848;28;20050;-73
2023/03/29 15:01:52;;;;;;;2.38;1.58;;;;;;;;;;5003559;28;20046;-73